Hav Tind — OZ2071 — position and weather

sailwx.info

Track history (hours):
 
Tides and Currents Weather Stations Pressure Air Temp Water Temp Dewpoint Dewpoint Depression Visibility Wind Speed Wind Dir Waves Ship Positions

Hav Tind

Last reported at 2017-Sep-19 13:54 UTC. Time now 2017-Sep-25 15:32 UTC.
Position N 62°14' W 006°44'.

Length 60 m; draft 4 m.

Type: Cargo ship. MMSI: 231565000.

Date/timePositionNaut miles runAvg speedWind from/ knotsBaromVisibWave heightAir tempDewpointWater temp
2017-Sep-19 13:54N 62°14' W 006°44'410.5
2017-Sep-19 13:30N 62°11' W 006°37'4 8.5
2017-Sep-19 13:00N 62°07' W 006°36'5 9.2
2017-Sep-19 12:30N 62°03' W 006°42'  
2017-Sep-16 21:18N 62°14' W 006°48'0 0.0
2017-Sep-16 20:59N 62°14' W 006°48'0 0.0
2017-Sep-16 20:14N 62°14' W 006°48'0 0.0
2017-Sep-16 20:00N 62°14' W 006°48'0 0.0
2017-Sep-16 19:29N 62°14' W 006°48'0 0.0
2017-Sep-16 19:00N 62°14' W 006°48'0 0.0
2017-Sep-16 18:30N 62°14' W 006°48'0 0.0
2017-Sep-16 18:00N 62°14' W 006°48'0 0.0
2017-Sep-16 17:30N 62°14' W 006°48'0 0.0
2017-Sep-16 17:00N 62°14' W 006°48'0 0.0
2017-Sep-16 16:30N 62°14' W 006°48'0 0.0
2017-Sep-16 16:00N 62°14' W 006°48'0 0.0
2017-Sep-16 15:30N 62°14' W 006°48'0 0.0
2017-Sep-16 15:00N 62°14' W 006°48'0 0.0
2017-Sep-16 14:30N 62°14' W 006°48'0 0.0
2017-Sep-16 14:00N 62°14' W 006°48'0 0.0
2017-Sep-16 13:30N 62°14' W 006°48'0 0.0
2017-Sep-16 13:00N 62°14' W 006°48'0 0.0
2017-Sep-16 12:30N 62°14' W 006°48'0 0.0
2017-Sep-16 12:00N 62°14' W 006°48'0 0.0
2017-Sep-16 11:30N 62°14' W 006°48'0 0.0
2017-Sep-16 11:00N 62°14' W 006°48'0 0.0
2017-Sep-16 10:30N 62°14' W 006°48'0 0.0
2017-Sep-14 17:42N 62°14' W 006°48'1 6.1
2017-Sep-14 17:30N 62°14' W 006°46'4 7.7
2017-Sep-14 17:00N 62°13' W 006°38'4 7.5
2017-Sep-14 16:30N 62°10' W 006°33'2 3.7
2017-Sep-14 16:00N 62°12' W 006°32'0 0.0
2017-Sep-14 15:30N 62°12' W 006°32'1 1.7
2017-Sep-14 15:00N 62°11' W 006°32'4 8.6
2017-Sep-14 14:30N 62°07' W 006°35'9 2.7
2017-Sep-14 11:07N 61°60' W 006°46'0 0.3
2017-Sep-14 10:32N 61°59' W 006°45'0 0.0
2017-Sep-14 10:20N 61°59' W 006°45'1 2.9
2017-Sep-14 10:00N 62°00' W 006°45'5 9.9
2017-Sep-14 09:30N 62°04' W 006°39'4 8.8
2017-Sep-14 09:00N 62°08' W 006°34'4 8.9
2017-Sep-14 08:30N 62°12' W 006°38'4 8.3
2017-Sep-14 08:00N 62°14' W 006°46'1 0.1
2017-Sep-13 16:21N 62°14' W 006°48'1 1.8
2017-Sep-13 15:59N 62°13' W 006°48'0 0.7
2017-Sep-13 15:30N 62°13' W 006°47'0 0.0
2017-Sep-13 15:00N 62°13' W 006°47'0 0.1
2017-Sep-13 14:30N 62°13' W 006°47'3 7.0
2017-Sep-13 14:00N 62°13' W 006°40'4 8.7
2017-Sep-13 13:30N 62°18' W 006°41'4 8.1
2017-Sep-13 12:57N 62°22' W 006°41'4 8.3
2017-Sep-13 12:30N 62°19' W 006°37'1 1.9
2017-Sep-13 12:00N 62°18' W 006°36'0 0.0
2017-Sep-13 11:30N 62°18' W 006°36'0 0.2
2017-Sep-13 11:00N 62°18' W 006°36'4 8.2
2017-Sep-13 10:30N 62°22' W 006°40'3 5.9
2017-Sep-13 10:00N 62°19' W 006°43'510.4
2017-Sep-13 09:30N 62°14' W 006°39'3 5.8
2017-Sep-13 09:00N 62°13' W 006°45'2 0.1
2017-Sep-12 15:00N 62°14' W 006°48'4 7.9
2017-Sep-12 14:30N 62°12' W 006°41'4 7.4
2017-Sep-12 14:00N 62°09' W 006°37'4 7.1
2017-Sep-12 13:30N 62°06' W 006°37'1 0.3
2017-Sep-12 09:37N 62°07' W 006°37'1 8.5
2017-Sep-12 09:30N 62°07' W 006°36'4 7.5
2017-Sep-12 09:00N 62°11' W 006°38'4 7.7
2017-Sep-12 08:30N 62°13' W 006°44'2 0.1
2017-Sep-11 10:17N 62°14' W 006°48'2 8.1
2017-Sep-11 10:00N 62°14' W 006°44'4 7.0
2017-Sep-11 09:30N 62°15' W 006°36'0 0.0
2017-Sep-11 09:00N 62°15' W 006°36'0 0.0
2017-Sep-11 08:30N 62°15' W 006°36'0 0.0
2017-Sep-11 08:00N 62°15' W 006°36'1 1.3
2017-Sep-11 07:30N 62°15' W 006°37'3 6.4
2017-Sep-11 07:00N 62°13' W 006°44'2 0.1
2017-Sep-10 12:21N 62°14' W 006°48'0 0.0
2017-Sep-10 11:51N 62°14' W 006°48'0 0.0
2017-Sep-10 11:22N 62°14' W 006°48'  
Track history (hours):
 
Tides and Currents Weather Stations Pressure Air Temp Water Temp Dewpoint Dewpoint Depression Visibility Wind Speed Wind Dir Waves Ship Positions

Hav Tind

Last reported at 2017-Sep-19 13:54 UTC. Time now 2017-Sep-25 15:32 UTC.
Position N 62°14' W 006°44'.

Length 60 m; draft 4 m.

Type: Cargo ship. MMSI: 231565000.

Date/timePositionNaut miles runAvg speedWind from/ knotsBaromVisibWave heightAir tempDewpointWater temp
2017-Sep-19 13:54N 62°14' W 006°44'410.5
2017-Sep-19 13:30N 62°11' W 006°37'4 8.5
2017-Sep-19 13:00N 62°07' W 006°36'5 9.2
2017-Sep-19 12:30N 62°03' W 006°42'  
2017-Sep-16 21:18N 62°14' W 006°48'0 0.0
2017-Sep-16 20:59N 62°14' W 006°48'0 0.0
2017-Sep-16 20:14N 62°14' W 006°48'0 0.0
2017-Sep-16 20:00N 62°14' W 006°48'0 0.0
2017-Sep-16 19:29N 62°14' W 006°48'0 0.0
2017-Sep-16 19:00N 62°14' W 006°48'0 0.0
2017-Sep-16 18:30N 62°14' W 006°48'0 0.0
2017-Sep-16 18:00N 62°14' W 006°48'0 0.0
2017-Sep-16 17:30N 62°14' W 006°48'0 0.0
2017-Sep-16 17:00N 62°14' W 006°48'0 0.0
2017-Sep-16 16:30N 62°14' W 006°48'0 0.0
2017-Sep-16 16:00N 62°14' W 006°48'0 0.0
2017-Sep-16 15:30N 62°14' W 006°48'0 0.0
2017-Sep-16 15:00N 62°14' W 006°48'0 0.0
2017-Sep-16 14:30N 62°14' W 006°48'0 0.0
2017-Sep-16 14:00N 62°14' W 006°48'0 0.0
2017-Sep-16 13:30N 62°14' W 006°48'0 0.0
2017-Sep-16 13:00N 62°14' W 006°48'0 0.0
2017-Sep-16 12:30N 62°14' W 006°48'0 0.0
2017-Sep-16 12:00N 62°14' W 006°48'0 0.0
2017-Sep-16 11:30N 62°14' W 006°48'0 0.0
2017-Sep-16 11:00N 62°14' W 006°48'0 0.0
2017-Sep-16 10:30N 62°14' W 006°48'0 0.0
2017-Sep-14 17:42N 62°14' W 006°48'1 6.1
2017-Sep-14 17:30N 62°14' W 006°46'4 7.7
2017-Sep-14 17:00N 62°13' W 006°38'4 7.5
2017-Sep-14 16:30N 62°10' W 006°33'2 3.7
2017-Sep-14 16:00N 62°12' W 006°32'0 0.0
2017-Sep-14 15:30N 62°12' W 006°32'1 1.7
2017-Sep-14 15:00N 62°11' W 006°32'4 8.6
2017-Sep-14 14:30N 62°07' W 006°35'9 2.7
2017-Sep-14 11:07N 61°60' W 006°46'0 0.3
2017-Sep-14 10:32N 61°59' W 006°45'0 0.0
2017-Sep-14 10:20N 61°59' W 006°45'1 2.9
2017-Sep-14 10:00N 62°00' W 006°45'5 9.9
2017-Sep-14 09:30N 62°04' W 006°39'4 8.8
2017-Sep-14 09:00N 62°08' W 006°34'4 8.9
2017-Sep-14 08:30N 62°12' W 006°38'4 8.3
2017-Sep-14 08:00N 62°14' W 006°46'1 0.1
2017-Sep-13 16:21N 62°14' W 006°48'1 1.8
2017-Sep-13 15:59N 62°13' W 006°48'0 0.7
2017-Sep-13 15:30N 62°13' W 006°47'0 0.0
2017-Sep-13 15:00N 62°13' W 006°47'0 0.1
2017-Sep-13 14:30N 62°13' W 006°47'3 7.0
2017-Sep-13 14:00N 62°13' W 006°40'4 8.7
2017-Sep-13 13:30N 62°18' W 006°41'4 8.1
2017-Sep-13 12:57N 62°22' W 006°41'4 8.3
2017-Sep-13 12:30N 62°19' W 006°37'1 1.9
2017-Sep-13 12:00N 62°18' W 006°36'0 0.0
2017-Sep-13 11:30N 62°18' W 006°36'0 0.2
2017-Sep-13 11:00N 62°18' W 006°36'4 8.2
2017-Sep-13 10:30N 62°22' W 006°40'3 5.9
2017-Sep-13 10:00N 62°19' W 006°43'510.4
2017-Sep-13 09:30N 62°14' W 006°39'3 5.8
2017-Sep-13 09:00N 62°13' W 006°45'2 0.1
2017-Sep-12 15:00N 62°14' W 006°48'4 7.9
2017-Sep-12 14:30N 62°12' W 006°41'4 7.4
2017-Sep-12 14:00N 62°09' W 006°37'4 7.1
2017-Sep-12 13:30N 62°06' W 006°37'1 0.3
2017-Sep-12 09:37N 62°07' W 006°37'1 8.5
2017-Sep-12 09:30N 62°07' W 006°36'4 7.5
2017-Sep-12 09:00N 62°11' W 006°38'4 7.7
2017-Sep-12 08:30N 62°13' W 006°44'2 0.1
2017-Sep-11 10:17N 62°14' W 006°48'2 8.1
2017-Sep-11 10:00N 62°14' W 006°44'4 7.0
2017-Sep-11 09:30N 62°15' W 006°36'0 0.0
2017-Sep-11 09:00N 62°15' W 006°36'0 0.0
2017-Sep-11 08:30N 62°15' W 006°36'0 0.0
2017-Sep-11 08:00N 62°15' W 006°36'1 1.3
2017-Sep-11 07:30N 62°15' W 006°37'3 6.4
2017-Sep-11 07:00N 62°13' W 006°44'2 0.1
2017-Sep-10 12:21N 62°14' W 006°48'0 0.0
2017-Sep-10 11:51N 62°14' W 006°48'0 0.0
2017-Sep-10 11:22N 62°14' W 006°48'  

Dump ship's entire track history